Time;durP1;ratioP1;P1;durP2;ratioP2;P2;SDS_P1;SDS_P2;PMS_P1;PMS_P2;Temp;Humidity;BMP_temperature;BMP_pressure;BME280_temperature;BME280_humidity;BME280_pressure;Samples;Min_cycle;Max_cycle;Signal;HPM_P1;HPM_P2
2021/03/24 00:01:40;;;;;;;52.30;42.42;;;6.90;99.30;;;;;;5077480;28;20410;-68
2021/03/24 00:04:25;;;;;;;54.40;43.25;;;6.90;99.60;;;;;;5104650;27;20040;-68
2021/03/24 00:07:11;;;;;;;50.85;40.72;;;7.00;99.70;;;;;;5080118;28;20054;-68
2021/03/24 00:09:57;;;;;;;56.05;43.55;;;7.00;99.70;;;;;;5082310;28;20048;-68
2021/03/24 00:12:43;;;;;;;50.33;40.10;;;7.10;99.60;;;;;;5080640;28;20048;-68
2021/03/24 00:15:28;;;;;;;53.83;41.88;;;7.10;99.70;;;;;;5091559;28;20037;-68
2021/03/24 00:18:14;;;;;;;53.30;42.58;;;7.10;99.60;;;;;;5083316;28;20047;-68
2021/03/24 00:21:00;;;;;;;49.75;40.70;;;7.10;99.60;;;;;;5087099;28;20040;-68
2021/03/24 00:23:46;;;;;;;48.95;38.67;;;7.00;99.50;;;;;;5109098;28;20054;-68
2021/03/24 00:26:32;;;;;;;46.58;36.47;;;6.90;99.40;;;;;;5087511;28;20044;-68
2021/03/24 00:29:18;;;;;;;51.60;40.97;;;6.80;99.30;;;;;;5068233;28;20056;-68
2021/03/24 00:32:04;;;;;;;53.30;41.45;;;6.90;99.30;;;;;;5080722;28;20127;-68
2021/03/24 00:34:49;;;;;;;55.20;39.20;;;6.80;99.30;;;;;;5107094;28;20066;-68
2021/03/24 00:37:36;;;;;;;55.13;40.60;;;6.80;99.20;;;;;;5082912;28;20522;-68
2021/03/24 00:40:30;;;;;;;56.88;42.40;;;6.80;99.20;;;;;;5086231;28;20398;-68
2021/03/24 00:43:16;;;;;;;59.50;42.50;;;6.70;99.20;;;;;;5083738;28;20032;-68
2021/03/24 00:46:02;;;;;;;;;;;6.70;99.10;;;;;;5082865;28;20133;-68
2021/03/24 00:48:47;;;;;;;53.95;40.83;;;6.70;99.20;;;;;;5085421;28;19938;-68
2021/03/24 00:51:33;;;;;;;56.50;41.67;;;6.70;99.20;;;;;;5085490;28;20083;-68
2021/03/24 00:54:20;;;;;;;58.33;42.75;;;6.70;99.20;;;;;;5090168;28;20051;-68
2021/03/24 00:57:06;;;;;;;55.35;41.60;;;6.70;99.30;;;;;;5086692;28;20075;-68
2021/03/24 00:59:52;;;;;;;56.80;42.08;;;6.70;99.30;;;;;;5086150;28;20059;-68
2021/03/24 01:02:37;;;;;;;57.00;42.17;;;6.70;99.30;;;;;;5109600;27;20121;-68
2021/03/24 01:05:24;;;;;;;56.43;41.43;;;6.60;99.20;;;;;;5107085;27;21395;-68
2021/03/24 01:08:13;;;;;;;58.22;41.85;;;6.60;99.30;;;;;;5084531;28;20735;-68
2021/03/24 01:11:00;;;;;;;54.60;41.13;;;6.50;99.20;;;;;;5083553;28;20135;-68
2021/03/24 01:13:46;;;;;;;55.92;41.33;;;6.50;99.20;;;;;;5085854;28;20044;-68
2021/03/24 01:16:32;;;;;;;56.80;40.67;;;6.40;99.20;;;;;;5109227;27;20135;-67
2021/03/24 01:19:17;;;;;;;58.67;41.20;;;6.40;99.20;;;;;;5088260;28;20294;-67
2021/03/24 01:22:03;;;;;;;53.63;39.40;;;6.30;99.30;;;;;;5086470;28;20036;-67
2021/03/24 01:24:49;;;;;;;54.78;40.83;;;6.30;99.30;;;;;;5111927;27;20969;-68
2021/03/24 01:27:35;;;;;;;51.70;39.13;;;6.20;99.40;;;;;;5086743;28;20048;-67
2021/03/24 01:30:22;;;;;;;55.60;39.55;;;6.20;99.40;;;;;;5086664;28;20055;-68
2021/03/24 01:33:08;;;;;;;54.30;38.40;;;6.10;99.30;;;;;;5114402;27;20100;-68
2021/03/24 01:35:55;;;;;;;57.60;41.10;;;6.10;99.40;;;;;;5088395;28;20093;-67
2021/03/24 01:38:41;;;;;;;54.53;40.83;;;5.60;99.40;;;;;;5085306;28;20185;-67
2021/03/24 01:41:27;;;;;;;56.92;40.97;;;6.00;99.60;;;;;;5085186;28;20104;-67
2021/03/24 01:44:13;;;;;;;57.95;43.17;;;5.90;99.60;;;;;;5085031;28;20040;-67
2021/03/24 01:46:59;;;;;;;;;;;5.90;99.80;;;;;;5089719;28;20040;-67
2021/03/24 01:49:45;;;;;;;56.67;43.38;;;5.80;99.90;;;;;;5086316;28;19920;-67
2021/03/24 01:52:31;;;;;;;59.35;44.67;;;5.80;99.80;;;;;;5087297;28;20097;-67
2021/03/24 01:55:17;;;;;;;;;;;5.80;99.90;;;;;;5086236;28;20145;-67
2021/03/24 01:58:03;;;;;;;70.55;45.75;;;5.70;99.90;;;;;;5085897;28;19927;-67
2021/03/24 02:00:51;;;;;;;66.07;47.63;;;5.70;99.90;;;;;;5086991;28;20048;-67
2021/03/24 02:03:37;;;;;;;63.63;45.95;;;5.60;99.90;;;;;;5108997;27;20039;-67
2021/03/24 02:06:34;;;;;;;66.10;45.92;;;5.60;99.90;;;;;;5086846;28;20119;-67
2021/03/24 02:09:37;;;;;;;66.15;46.53;;;5.50;99.90;;;;;;5085368;28;20096;-67
2021/03/24 02:12:26;;;;;;;66.70;46.78;;;5.50;99.90;;;;;;5071839;28;20040;-67
2021/03/24 02:15:32;;;;;;;66.88;46.30;;;5.50;99.90;;;;;;5087908;28;20074;-67
2021/03/24 02:18:19;;;;;;;68.57;47.50;;;5.40;99.90;;;;;;5110383;27;20064;-67
2021/03/24 02:21:15;;;;;;;68.90;47.25;;;5.40;99.90;;;;;;5083614;28;20059;-67
2021/03/24 02:24:23;;;;;;;68.40;47.72;;;5.40;99.90;;;;;;5110204;27;20408;-67
2021/03/24 02:27:12;;;;;;;70.40;49.08;;;5.40;99.90;;;;;;5083760;28;20048;-67
2021/03/24 02:30:08;;;;;;;70.38;47.53;;;5.40;99.90;;;;;;5087475;28;20047;-67
2021/03/24 02:33:02;;;;;;;69.00;47.67;;;5.30;99.90;;;;;;5086463;28;20064;-67
2021/03/24 02:35:56;;;;;;;72.05;46.65;;;5.30;99.90;;;;;;5083048;28;20040;-67
2021/03/24 02:38:44;;;;;;;75.30;47.60;;;5.30;99.90;;;;;;5084135;28;20055;-67
2021/03/24 02:41:30;;;;;;;60.13;43.53;;;5.20;99.90;;;;;;5080972;28;20048;-67
2021/03/24 02:44:16;;;;;;;66.38;45.95;;;5.20;99.90;;;;;;5072821;28;20071;-67
2021/03/24 02:47:05;;;;;;;69.20;46.67;;;5.20;99.90;;;;;;5074277;28;20048;-67
2021/03/24 02:49:51;;;;;;;70.10;46.50;;;5.10;99.90;;;;;;5085794;28;20129;-67
2021/03/24 02:52:37;;;;;;;72.97;47.10;;;5.10;99.90;;;;;;5083292;28;20118;-67
2021/03/24 02:55:23;;;;;;;;;;;5.10;99.90;;;;;;5082925;28;20032;-67
2021/03/24 02:58:11;;;;;;;69.57;46.22;;;5.10;99.90;;;;;;5083015;28;19947;-67
2021/03/24 03:00:57;;;;;;;67.05;46.05;;;5.10;99.90;;;;;;5083137;28;20044;-67
2021/03/24 03:03:49;;;;;;;65.32;45.25;;;5.10;99.90;;;;;;5107466;27;20506;-67
2021/03/24 03:06:36;;;;;;;65.45;45.45;;;5.10;99.90;;;;;;5082640;28;20099;-67
2021/03/24 03:09:31;;;;;;;68.07;46.35;;;5.00;99.90;;;;;;5081806;28;20048;-67
2021/03/24 03:12:23;;;;;;;63.17;42.10;;;5.10;99.90;;;;;;5082095;28;20425;-67
2021/03/24 03:15:32;;;;;;;65.05;45.85;;;4.90;99.90;;;;;;5081571;28;20482;-67
2021/03/24 03:18:33;;;;;;;66.57;46.05;;;4.90;99.90;;;;;;5106797;27;20050;-67
2021/03/24 03:21:29;;;;;;;64.72;44.83;;;4.90;99.90;;;;;;5109099;27;20394;-67
2021/03/24 03:24:16;;;;;;;65.35;46.10;;;4.90;99.90;;;;;;5083922;28;20044;-67
2021/03/24 03:27:03;;;;;;;71.10;43.70;;;4.90;99.90;;;;;;5082203;28;20454;-67
2021/03/24 03:29:51;;;;;;;66.00;45.53;;;4.90;99.90;;;;;;5081804;28;20040;-67
2021/03/24 03:32:38;;;;;;;69.05;46.90;;;4.90;99.90;;;;;;5082399;28;20498;-67
2021/03/24 03:35:25;;;;;;;62.55;44.83;;;4.80;99.90;;;;;;5086284;28;20048;-67
2021/03/24 03:38:17;;;;;;;68.70;45.63;;;4.80;99.90;;;;;;5084033;28;20085;-67
2021/03/24 03:41:05;;;;;;;72.95;48.38;;;4.80;99.90;;;;;;5088753;28;20085;-67
2021/03/24 03:43:54;;;;;;;75.15;47.47;;;4.80;99.90;;;;;;5087213;28;20048;-67
2021/03/24 03:46:46;;;;;;;65.53;44.17;;;4.80;99.90;;;;;;5085841;28;20040;-67
2021/03/24 03:49:32;;;;;;;55.95;39.33;;;4.80;99.90;;;;;;5086691;28;20102;-67
2021/03/24 03:52:22;;;;;;;64.07;44.00;;;4.70;99.90;;;;;;5086165;28;20044;-67
2021/03/24 03:55:17;;;;;;;64.80;43.03;;;4.70;99.90;;;;;;5087062;28;20048;-67
2021/03/24 03:58:10;;;;;;;47.25;33.03;;;4.70;99.90;;;;;;5088406;28;20043;-67
2021/03/24 04:01:00;;;;;;;59.92;40.58;;;4.60;99.90;;;;;;5082231;28;20048;-67
2021/03/24 04:04:12;;;;;;;66.40;43.65;;;4.50;99.90;;;;;;5084259;28;20036;-67
2021/03/24 04:07:02;;;;;;;45.17;32.55;;;4.60;99.90;;;;;;5107394;27;20033;-67
2021/03/24 04:09:48;;;;;;;45.55;32.08;;;4.50;99.90;;;;;;5085723;28;20047;-67
2021/03/24 04:12:38;;;;;;;64.22;43.83;;;4.50;99.90;;;;;;5086008;28;20417;-67
2021/03/24 04:15:24;;;;;;;63.33;43.15;;;4.40;99.90;;;;;;5084569;28;20040;-67
2021/03/24 04:18:14;;;;;;;67.82;45.20;;;4.50;99.90;;;;;;5084606;28;20093;-67
2021/03/24 04:21:02;;;;;;;70.13;44.75;;;4.50;99.90;;;;;;5085888;28;20040;-67
2021/03/24 04:23:55;;;;;;;75.25;46.45;;;4.50;99.90;;;;;;5081565;28;20071;-67
2021/03/24 04:26:48;;;;;;;62.22;44.13;;;4.50;99.90;;;;;;5073072;28;20413;-67
2021/03/24 04:29:50;;;;;;;66.47;44.80;;;4.50;99.90;;;;;;5112745;27;20640;-67
2021/03/24 04:32:37;;;;;;;52.83;36.20;;;4.50;99.90;;;;;;5088946;28;20417;-67
2021/03/24 04:35:23;;;;;;;63.30;41.85;;;4.40;99.90;;;;;;5091181;28;20048;-67
2021/03/24 04:38:33;;;;;;;48.22;34.42;;;4.30;99.90;;;;;;5086241;28;20044;-67
2021/03/24 04:41:29;;;;;;;57.70;37.88;;;4.20;99.90;;;;;;5089503;28;20181;-67
2021/03/24 04:44:28;;;;;;;63.72;42.03;;;4.30;99.90;;;;;;5089890;28;20486;-67
2021/03/24 04:47:19;;;;;;;62.85;43.15;;;4.20;99.90;;;;;;5084700;28;20071;-67
2021/03/24 04:50:15;;;;;;;74.15;46.88;;;4.20;99.90;;;;;;5093162;28;20117;-67
2021/03/24 04:53:04;;;;;;;71.35;46.10;;;4.20;99.90;;;;;;5086066;28;20032;-67
2021/03/24 04:55:52;;;;;;;70.45;47.63;;;4.20;99.90;;;;;;5090677;28;20136;-67
2021/03/24 04:59:00;;;;;;;52.83;35.03;;;4.20;99.90;;;;;;5089244;28;20052;-67
2021/03/24 05:01:50;;;;;;;49.53;35.97;;;4.10;99.90;;;;;;5087565;28;20036;-67
2021/03/24 05:04:57;;;;;;;62.38;42.55;;;4.10;99.90;;;;;;5113475;27;20039;-67
2021/03/24 05:08:04;;;;;;;75.90;47.75;;;4.10;99.90;;;;;;5088201;28;20066;-67
2021/03/24 05:10:55;;;;;;;89.75;52.42;;;4.10;99.90;;;;;;5074570;28;20125;-67
2021/03/24 05:14:00;;;;;;;81.53;51.92;;;4.10;99.90;;;;;;5088908;28;20583;-67
2021/03/24 05:16:49;;;;;;;67.18;45.00;;;4.10;99.90;;;;;;5114790;27;20056;-67
2021/03/24 05:19:34;;;;;;;71.47;45.25;;;4.10;99.90;;;;;;5087946;28;20080;-67
2021/03/24 05:22:32;;;;;;;74.28;48.30;;;4.00;99.90;;;;;;5087944;28;20059;-67
2021/03/24 05:25:32;;;;;;;91.75;56.10;;;4.00;99.90;;;;;;5114249;27;20056;-67
2021/03/24 05:28:44;;;;;;;72.50;46.78;;;4.00;99.90;;;;;;5090302;28;21670;-67
2021/03/24 05:31:40;;;;;;;96.85;57.47;;;4.00;99.90;;;;;;5086325;28;20102;-67
2021/03/24 05:34:39;;;;;;;91.85;53.28;;;4.10;99.90;;;;;;5084094;28;20048;-67
2021/03/24 05:37:29;;;;;;;81.18;51.22;;;4.00;99.90;;;;;;5086455;28;20414;-67
2021/03/24 05:40:47;;;;;;;99.10;57.45;;;4.00;99.90;;;;;;5109083;27;20131;-67
2021/03/24 05:43:59;;;;;;;91.75;56.45;;;4.10;99.90;;;;;;5081386;28;20044;-67
2021/03/24 05:47:15;;;;;;;98.15;58.33;;;4.10;99.90;;;;;;5084787;28;20082;-67
2021/03/24 05:50:34;;;;;;;94.63;56.47;;;4.20;99.90;;;;;;5073776;28;20045;-67
2021/03/24 05:53:51;;;;;;;103.90;59.30;;;4.20;99.90;;;;;;5084528;28;20144;-67
2021/03/24 05:57:05;;;;;;;109.15;60.88;;;4.20;99.90;;;;;;5080260;28;20048;-67
2021/03/24 05:59:57;;;;;;;114.95;64.75;;;4.20;99.90;;;;;;5088805;28;20421;-67
2021/03/24 06:02:58;;;;;;;106.22;63.05;;;4.30;99.90;;;;;;5086594;28;20125;-67
2021/03/24 06:06:07;;;;;;;114.43;62.95;;;4.40;99.90;;;;;;5088844;28;20037;-67
2021/03/24 06:09:24;;;;;;;109.05;64.70;;;4.50;99.90;;;;;;5087847;28;20438;-67
2021/03/24 06:12:22;;;;;;;100.22;61.53;;;4.70;99.90;;;;;;5088786;28;20039;-67
2021/03/24 06:15:29;;;;;;;101.72;61.92;;;4.80;99.90;;;;;;5089290;28;20097;-67
2021/03/24 06:18:21;;;;;;;;;;;5.00;99.90;;;;;;5090586;28;20044;-67
2021/03/24 06:21:15;;;;;;;102.50;62.28;;;5.10;99.90;;;;;;5085861;28;19965;-67
2021/03/24 06:24:41;;;;;;;93.13;60.17;;;5.30;99.90;;;;;;5113495;27;20036;-67
2021/03/24 06:27:32;;;;;;;94.30;60.17;;;5.40;99.90;;;;;;5085317;28;20440;-67
2021/03/24 06:30:25;;;;;;;96.85;60.75;;;5.50;99.90;;;;;;5113585;27;20043;-67
2021/03/24 06:33:30;;;;;;;92.47;59.58;;;5.60;99.90;;;;;;5110757;27;20044;-67
2021/03/24 06:36:50;;;;;;;94.40;60.38;;;5.70;99.90;;;;;;5085992;28;20127;-67
2021/03/24 06:40:13;;;;;;;91.85;59.15;;;5.90;99.90;;;;;;5087396;28;20047;-67
2021/03/24 06:43:18;;;;;;;84.10;56.15;;;6.20;99.90;;;;;;5087394;28;20047;-67
2021/03/24 06:46:28;;;;;;;82.63;55.50;;;6.40;99.90;;;;;;5087603;28;20549;-67
2021/03/24 06:49:28;;;;;;;79.03;55.95;;;6.70;99.90;;;;;;5086584;28;20497;-67
2021/03/24 06:53:04;;;;;;;77.55;56.28;;;6.90;99.60;;;;;;5084370;28;20048;-67
2021/03/24 06:56:19;;;;;;;82.88;56.83;;;7.20;99.20;;;;;;5047297;28;20122;-67
2021/03/24 06:59:38;;;;;;;87.47;55.80;;;7.40;98.70;;;;;;5074688;28;20044;-67
2021/03/24 07:03:01;;;;;;;84.88;56.50;;;7.50;98.50;;;;;;5084387;28;20421;-67
2021/03/24 07:06:07;;;;;;;75.07;55.25;;;7.70;98.30;;;;;;5087826;28;20040;-67
2021/03/24 07:09:02;;;;;;;80.55;57.35;;;7.80;98.10;;;;;;5110588;27;20090;-68
2021/03/24 07:11:58;;;;;;;78.35;56.00;;;7.80;97.90;;;;;;5085122;28;20405;-68
2021/03/24 07:14:46;;;;;;;78.47;56.50;;;8.00;97.90;;;;;;5086686;28;20048;-68
2021/03/24 07:17:35;;;;;;;84.07;59.58;;;8.10;97.70;;;;;;5087963;28;20282;-68
2021/03/24 07:20:30;;;;;;;83.22;55.75;;;8.10;97.60;;;;;;5087751;28;20051;-68
2021/03/24 07:23:49;;;;;;;81.82;57.03;;;8.10;97.50;;;;;;5087475;28;20498;-68
2021/03/24 07:27:07;;;;;;;83.72;58.35;;;8.00;97.70;;;;;;5083718;28;20130;-68
2021/03/24 07:30:31;;;;;;;81.28;57.90;;;8.00;97.90;;;;;;5108847;27;20097;-68
2021/03/24 07:33:25;;;;;;;78.00;56.15;;;7.90;98.20;;;;;;5030209;28;20044;-68
2021/03/24 07:36:20;;;;;;;79.35;57.13;;;7.90;98.30;;;;;;5087459;28;20134;-68
2021/03/24 07:39:37;;;;;;;82.57;57.70;;;8.00;98.40;;;;;;5113026;27;20044;-68
2021/03/24 07:43:01;;;;;;;88.80;58.92;;;8.10;98.20;;;;;;5086659;28;20036;-68
2021/03/24 07:46:11;;;;;;;81.60;58.08;;;8.20;98.20;;;;;;5086442;28;20063;-68
2021/03/24 07:49:37;;;;;;;81.97;58.40;;;8.20;98.10;;;;;;5087240;28;20048;-68
2021/03/24 07:52:45;;;;;;;80.43;57.88;;;8.20;97.70;;;;;;5085293;28;20052;-68
2021/03/24 07:56:12;;;;;;;82.57;58.50;;;8.30;97.70;;;;;;5086890;28;20048;-67
2021/03/24 07:59:13;;;;;;;84.93;59.00;;;8.50;97.90;;;;;;5051507;28;20986;-67
2021/03/24 08:02:17;;;;;;;80.28;57.38;;;8.60;97.60;;;;;;5088109;28;20390;-67
2021/03/24 08:05:37;;;;;;;80.85;57.80;;;8.80;97.20;;;;;;5086656;28;20399;-67
2021/03/24 08:08:46;;;;;;;76.63;53.88;;;8.90;97.30;;;;;;5108440;27;20397;-67
2021/03/24 08:11:46;;;;;;;72.53;55.47;;;9.00;96.90;;;;;;5086550;28;20051;-66
2021/03/24 08:15:02;;;;;;;82.43;57.05;;;9.00;97.00;;;;;;5086766;28;20043;-66
2021/03/24 08:18:12;;;;;;;68.50;52.63;;;9.20;96.30;;;;;;5086786;28;20047;-67
2021/03/24 08:21:11;;;;;;;67.78;52.03;;;9.40;96.60;;;;;;5086108;28;20059;-67
2021/03/24 08:23:56;;;;;;;70.50;49.97;;;9.70;95.90;;;;;;5084905;28;20042;-67
2021/03/24 08:26:30;;;;;;;67.30;52.05;;;10.00;95.70;;;;;;5087214;28;20540;-67
2021/03/24 08:29:09;;;;;;;63.58;49.38;;;10.20;95.20;;;;;;5089223;28;20047;-67
2021/03/24 08:32:11;;;;;;;65.80;48.00;;;10.40;94.50;;;;;;5087047;28;20362;-67
2021/03/24 08:34:57;;;;;;;59.08;44.25;;;10.90;93.90;;;;;;5088012;28;20100;-67
2021/03/24 08:37:51;;;;;;;63.30;47.15;;;11.20;93.10;;;;;;5087878;28;20094;-67
2021/03/24 08:40:38;;;;;;;63.75;46.00;;;11.60;92.40;;;;;;5087414;28;20642;-67
2021/03/24 08:43:29;;;;;;;57.13;44.22;;;11.90;91.10;;;;;;5086595;28;20537;-67
2021/03/24 08:46:07;;;;;;;56.20;43.22;;;12.10;90.60;;;;;;5088249;28;20044;-67
2021/03/24 08:48:42;;;;;;;61.10;43.28;;;12.40;90.10;;;;;;5087221;28;20089;-67
2021/03/24 08:51:34;;;;;;;60.05;43.83;;;12.50;90.80;;;;;;5087586;28;20609;-68
2021/03/24 08:54:27;;;;;;;55.67;44.33;;;12.80;89.00;;;;;;5087300;28;20044;-68
2021/03/24 08:57:05;;;;;;;69.03;44.63;;;13.30;87.10;;;;;;5086633;28;20157;-68
2021/03/24 08:59:52;;;;;;;53.45;41.63;;;13.40;87.60;;;;;;5090145;28;20044;-68
2021/03/24 09:02:40;;;;;;;54.00;42.17;;;13.70;85.90;;;;;;5086781;28;20082;-68
2021/03/24 09:05:25;;;;;;;54.58;39.92;;;13.80;82.90;;;;;;5084891;28;20090;-68
2021/03/24 09:08:06;;;;;;;48.50;39.28;;;13.80;83.10;;;;;;5084896;28;20190;-68
2021/03/24 09:10:53;;;;;;;48.47;36.47;;;13.90;82.90;;;;;;5087058;28;20239;-68
2021/03/24 09:13:32;;;;;;;43.28;34.05;;;13.70;81.30;;;;;;5086109;28;20085;-68
2021/03/24 09:16:36;;;;;;;48.13;36.28;;;13.30;80.30;;;;;;5090733;28;20032;-68
2021/03/24 09:19:07;;;;;;;47.78;34.88;;;12.80;81.80;;;;;;5088343;28;20051;-68
2021/03/24 09:21:47;;;;;;;48.35;37.65;;;12.70;83.40;;;;;;5090148;28;20060;-68
2021/03/24 09:24:35;;;;;;;47.15;36.00;;;12.60;83.20;;;;;;5090547;28;20028;-68
2021/03/24 09:27:20;;;;;;;46.50;35.53;;;12.50;86.20;;;;;;5087733;28;20032;-67
2021/03/24 09:30:17;;;;;;;47.75;35.03;;;12.40;88.80;;;;;;5090183;28;20070;-67
2021/03/24 09:33:27;;;;;;;50.60;34.17;;;12.40;87.40;;;;;;5085764;28;20044;-68
2021/03/24 09:36:30;;;;;;;45.38;34.67;;;12.50;86.40;;;;;;5065805;28;20036;-68
2021/03/24 09:38:58;;;;;;;46.05;34.05;;;12.50;86.10;;;;;;5090947;28;20122;-68
2021/03/24 09:41:30;;;;;;;46.00;34.65;;;12.50;88.40;;;;;;5090926;28;20050;-67
2021/03/24 09:44:00;;;;;;;45.33;33.47;;;12.50;87.50;;;;;;5090308;28;20036;-67
2021/03/24 09:46:36;;;;;;;45.53;32.97;;;12.60;90.10;;;;;;5088680;28;20123;-68
2021/03/24 09:49:22;;;;;;;42.83;30.35;;;12.70;86.50;;;;;;5092478;28;20482;-68
2021/03/24 09:52:16;;;;;;;44.28;29.77;;;12.80;87.70;;;;;;5085871;28;20043;-68
2021/03/24 09:55:00;;;;;;;44.15;33.17;;;12.80;85.30;;;;;;5090345;28;20158;-67
2021/03/24 09:57:40;;;;;;;43.28;31.88;;;12.80;86.50;;;;;;5087061;28;20581;-68
2021/03/24 10:00:11;;;;;;;42.55;33.97;;;12.90;87.00;;;;;;5090124;28;20048;-68
2021/03/24 10:02:53;;;;;;;41.15;29.85;;;12.90;88.00;;;;;;5089348;28;20046;-68
2021/03/24 10:05:57;;;;;;;47.50;29.90;;;13.10;86.10;;;;;;5088297;28;20038;-68
2021/03/24 10:08:44;;;;;;;45.22;32.38;;;13.10;84.60;;;;;;5043544;28;20053;-67
2021/03/24 10:11:56;;;;;;;43.60;33.63;;;13.00;85.40;;;;;;5087829;28;20052;-67
2021/03/24 10:14:35;;;;;;;42.78;31.23;;;13.00;84.40;;;;;;5071134;28;20052;-68
2021/03/24 10:17:04;;;;;;;40.70;29.83;;;13.10;85.80;;;;;;5089034;28;20395;-68
2021/03/24 10:19:38;;;;;;;42.25;30.77;;;13.10;85.50;;;;;;5089249;28;20123;-68
2021/03/24 10:22:25;;;;;;;39.50;29.80;;;13.00;84.00;;;;;;5088678;28;20383;-68
2021/03/24 10:25:07;;;;;;;42.17;30.63;;;13.00;85.50;;;;;;5089755;28;20050;-68
2021/03/24 10:27:34;;;;;;;44.97;29.92;;;13.00;84.50;;;;;;5086310;28;20044;-68
2021/03/24 10:30:37;;;;;;;35.92;28.55;;;13.10;85.30;;;;;;5093256;28;20070;-68
2021/03/24 10:33:06;;;;;;;39.72;28.27;;;13.10;87.10;;;;;;5089021;28;20036;-68
2021/03/24 10:35:46;;;;;;;37.42;26.88;;;13.10;86.70;;;;;;5091171;28;20040;-68
2021/03/24 10:38:25;;;;;;;40.45;29.25;;;13.10;84.00;;;;;;5090211;28;20040;-68
2021/03/24 10:41:12;;;;;;;50.92;26.27;;;13.10;82.70;;;;;;5091789;28;20068;-68
2021/03/24 10:44:01;;;;;;;42.88;27.05;;;13.10;84.90;;;;;;5089562;28;20039;-68
2021/03/24 10:46:42;;;;;;;35.67;26.73;;;13.10;83.40;;;;;;5089843;28;20074;-68
2021/03/24 10:49:22;;;;;;;36.13;27.02;;;13.10;83.50;;;;;;5089256;28;20043;-68
2021/03/24 10:52:12;;;;;;;37.83;26.30;;;13.10;81.80;;;;;;5082517;28;20048;-68
2021/03/24 10:54:39;;;;;;;34.60;26.60;;;13.20;83.70;;;;;;5089321;28;20436;-68
2021/03/24 10:58:03;;;;;;;33.65;25.88;;;13.30;83.50;;;;;;5089749;28;20032;-68
2021/03/24 11:00:37;;;;;;;31.95;24.90;;;13.40;81.50;;;;;;5051106;28;20439;-68
2021/03/24 11:03:17;;;;;;;35.33;24.35;;;13.40;84.20;;;;;;5090134;28;20119;-68
2021/03/24 11:06:01;;;;;;;38.20;25.08;;;13.30;80.10;;;;;;5089522;28;20043;-68
2021/03/24 11:09:00;;;;;;;33.58;25.33;;;13.30;80.00;;;;;;5086197;28;20040;-68
2021/03/24 11:11:47;;;;;;;35.92;26.55;;;13.40;82.10;;;;;;5086842;28;20047;-68
2021/03/24 11:14:19;;;;;;;32.75;23.98;;;13.50;85.20;;;;;;5090756;28;20051;-68
2021/03/24 11:16:56;;;;;;;32.88;24.85;;;13.40;79.00;;;;;;5085972;28;20071;-68
2021/03/24 11:19:34;;;;;;;31.38;24.27;;;13.40;80.30;;;;;;5089758;28;20046;-68
2021/03/24 11:22:21;;;;;;;36.97;24.85;;;13.50;80.10;;;;;;5086428;28;20093;-68
2021/03/24 11:24:59;;;;;;;35.40;25.85;;;13.60;81.50;;;;;;5088927;28;20047;-68
2021/03/24 11:27:38;;;;;;;39.35;25.63;;;13.60;80.30;;;;;;5088046;28;20038;-68
2021/03/24 11:30:21;;;;;;;36.10;24.75;;;13.70;78.60;;;;;;5089583;28;20043;-68
2021/03/24 11:32:50;;;;;;;33.22;24.90;;;13.60;78.80;;;;;;5088091;28;20048;-68
2021/03/24 11:35:45;;;;;;;28.65;23.63;;;13.70;78.70;;;;;;5090532;28;20051;-68
2021/03/24 11:38:34;;;;;;;27.52;22.63;;;13.70;78.90;;;;;;5066092;28;20131;-68
2021/03/24 11:41:19;;;;;;;52.22;26.38;;;13.80;79.80;;;;;;5051689;28;20080;-68
2021/03/24 11:43:53;;;;;;;33.90;24.30;;;13.80;79.60;;;;;;5088658;28;20115;-68
2021/03/24 11:46:28;;;;;;;31.95;25.15;;;13.80;78.80;;;;;;5085284;28;20058;-68
2021/03/24 11:49:12;;;;;;;32.30;25.02;;;13.80;80.30;;;;;;5089043;28;20094;-68
2021/03/24 11:51:41;;;;;;;41.80;25.35;;;13.90;80.40;;;;;;5086745;28;20040;-68
2021/03/24 11:54:32;;;;;;;36.20;24.73;;;14.00;79.60;;;;;;5086203;28;20046;-68
2021/03/24 11:57:20;;;;;;;39.85;25.77;;;14.10;79.90;;;;;;5086668;28;20067;-68
2021/03/24 12:00:11;;;;;;;31.70;24.92;;;14.10;78.40;;;;;;5087694;28;20513;-68
2021/03/24 12:02:57;;;;;;;36.65;24.48;;;14.20;79.50;;;;;;5087725;28;20036;-68
2021/03/24 12:05:45;;;;;;;43.33;26.27;;;14.30;76.40;;;;;;5085158;28;20041;-68
2021/03/24 12:08:52;;;;;;;29.75;24.00;;;14.20;79.90;;;;;;5089515;28;20047;-68
2021/03/24 12:11:29;;;;;;;35.92;24.90;;;14.30;75.20;;;;;;5073766;28;20052;-68
2021/03/24 12:14:21;;;;;;;32.83;23.98;;;14.20;77.00;;;;;;5086675;28;20041;-68
2021/03/24 12:16:51;;;;;;;35.08;23.75;;;14.30;73.50;;;;;;5085970;28;20039;-68
2021/03/24 12:19:43;;;;;;;37.63;25.45;;;14.30;75.60;;;;;;5087443;28;20458;-68
2021/03/24 12:22:18;;;;;;;34.42;25.80;;;14.20;77.60;;;;;;5086578;28;20494;-68
2021/03/24 12:24:46;;;;;;;35.00;25.90;;;14.30;78.80;;;;;;5088730;28;20555;-68
2021/03/24 12:27:17;;;;;;;34.33;27.17;;;14.40;76.30;;;;;;5087360;28;20059;-68
2021/03/24 12:30:03;;;;;;;37.40;24.35;;;14.50;79.20;;;;;;5087697;28;20067;-68
2021/03/24 12:32:36;;;;;;;32.88;25.92;;;14.60;78.10;;;;;;5086479;28;20647;-68
2021/03/24 12:35:05;;;;;;;36.70;25.40;;;14.60;76.90;;;;;;5088024;28;20032;-68
2021/03/24 12:37:36;;;;;;;33.03;24.48;;;14.50;72.90;;;;;;5087210;28;20048;-68
2021/03/24 12:40:23;;;;;;;32.08;23.15;;;14.40;73.50;;;;;;5088417;28;20393;-68
2021/03/24 12:42:52;;;;;;;34.85;26.10;;;14.30;75.30;;;;;;5084263;28;20506;-68
2021/03/24 12:45:37;;;;;;;32.65;24.23;;;14.30;74.50;;;;;;5087131;28;20543;-68
2021/03/24 12:48:05;;;;;;;37.60;25.02;;;14.20;76.40;;;;;;5083443;28;20032;-68
2021/03/24 12:50:31;;;;;;;36.80;25.88;;;14.30;77.00;;;;;;5093841;28;20032;-68
2021/03/24 12:53:15;;;;;;;39.35;26.45;;;14.30;78.60;;;;;;5089720;28;20771;-68
2021/03/24 12:55:41;;;;;;;32.78;24.75;;;14.40;78.50;;;;;;5087700;28;20040;-68
2021/03/24 12:58:46;;;;;;;35.83;27.73;;;14.50;78.10;;;;;;5090606;28;20363;-68
2021/03/24 13:01:24;;;;;;;38.47;24.70;;;14.70;75.40;;;;;;5091349;28;20040;-69
2021/03/24 13:04:25;;;;;;;36.72;23.98;;;14.80;69.10;;;;;;5090149;28;20061;-68
2021/03/24 13:07:25;;;;;;;31.92;23.52;;;14.70;67.80;;;;;;5093035;28;20501;-68
2021/03/24 13:10:08;;;;;;;33.63;24.27;;;14.70;70.40;;;;;;5094334;28;20111;-68
2021/03/24 13:12:46;;;;;;;38.22;26.55;;;14.80;75.90;;;;;;5089666;28;20054;-68
2021/03/24 13:15:23;;;;;;;33.00;25.95;;;14.80;72.30;;;;;;5093170;28;20043;-68
2021/03/24 13:17:52;;;;;;;38.00;26.08;;;14.80;70.20;;;;;;5087540;28;20494;-68
2021/03/24 13:20:32;;;;;;;35.22;26.92;;;14.70;72.30;;;;;;5092627;28;20036;-69
2021/03/24 13:23:35;;;;;;;39.35;27.30;;;14.70;73.00;;;;;;5090361;28;20043;-68
2021/03/24 13:26:07;;;;;;;34.90;26.35;;;14.70;70.50;;;;;;5088101;28;20047;-68
2021/03/24 13:28:55;;;;;;;36.72;28.52;;;14.70;72.20;;;;;;5090388;28;20509;-68
2021/03/24 13:31:24;;;;;;;37.60;28.33;;;14.80;72.30;;;;;;5090819;28;20032;-68
2021/03/24 13:34:08;;;;;;;38.58;27.48;;;14.80;73.70;;;;;;5092806;28;20044;-68
2021/03/24 13:36:54;;;;;;;36.70;28.10;;;14.70;71.80;;;;;;5093051;28;20055;-68
2021/03/24 13:39:22;;;;;;;;;;;14.70;73.50;;;;;;5091249;28;20042;-68
2021/03/24 13:41:56;;;;;;;37.78;27.88;;;14.60;74.60;;;;;;5089628;28;20294;-68
2021/03/24 13:44:45;;;;;;;37.70;27.67;;;14.60;72.70;;;;;;5089977;28;20097;-68
2021/03/24 13:47:35;;;;;;;39.55;29.45;;;14.50;76.00;;;;;;5087501;28;20036;-68
2021/03/24 13:50:32;;;;;;;37.67;27.40;;;14.60;75.80;;;;;;5090654;28;20075;-69
2021/03/24 13:53:00;;;;;;;38.80;29.77;;;14.60;76.40;;;;;;5089442;28;20039;-69
2021/03/24 13:55:55;;;;;;;44.15;31.23;;;14.60;77.80;;;;;;5091377;28;20039;-69
2021/03/24 13:58:43;;;;;;;42.10;29.25;;;14.60;79.10;;;;;;5087132;28;20066;-68
2021/03/24 14:01:27;;;;;;;42.40;28.02;;;14.50;80.20;;;;;;5090512;28;20062;-69
2021/03/24 14:04:08;;;;;;;39.40;28.98;;;14.50;79.30;;;;;;5104407;27;20047;-69
2021/03/24 14:06:47;;;;;;;40.97;27.73;;;14.50;79.80;;;;;;5091073;28;20058;-69
2021/03/24 14:09:20;;;;;;;39.28;28.85;;;14.50;78.00;;;;;;5090975;28;20494;-69
2021/03/24 14:12:06;;;;;;;41.42;30.55;;;14.60;77.90;;;;;;5086346;28;20513;-69
2021/03/24 14:15:07;;;;;;;38.72;27.58;;;14.50;78.60;;;;;;5090290;28;20068;-69
2021/03/24 14:17:42;;;;;;;36.38;29.60;;;14.40;76.70;;;;;;5087293;28;20115;-69
2021/03/24 14:20:20;;;;;;;41.95;28.88;;;14.30;79.30;;;;;;5072310;28;20071;-69
2021/03/24 14:23:02;;;;;;;40.75;29.20;;;14.30;79.40;;;;;;5087921;28;20497;-68
2021/03/24 14:25:34;;;;;;;46.38;29.77;;;14.30;79.20;;;;;;5090650;28;20089;-69
2021/03/24 14:28:08;;;;;;;38.58;30.38;;;14.20;79.00;;;;;;5089629;28;20040;-69
2021/03/24 14:30:45;;;;;;;42.92;30.92;;;14.20;81.10;;;;;;5090135;28;20044;-69